createdAt,value
2022-08-24T00:01:57.352Z,34.53
2022-08-24T00:04:28.270Z,32.60
2022-08-24T00:06:57.800Z,38.13
2022-08-24T00:09:26.314Z,35.30
2022-08-24T00:11:54.536Z,29.25
2022-08-24T00:14:22.895Z,35.97
2022-08-24T00:16:51.153Z,31.35
2022-08-24T00:19:19.337Z,38.53
2022-08-24T00:21:49.416Z,36.67
2022-08-24T00:24:17.644Z,36.53
2022-08-24T00:26:46.539Z,32.35
2022-08-24T00:29:15.433Z,33.33
2022-08-24T00:31:43.861Z,39.50
2022-08-24T00:34:14.034Z,32.05
2022-08-24T00:36:43.353Z,32.90
2022-08-24T00:39:13.267Z,24.92
2022-08-24T00:41:43.544Z,30.45
2022-08-24T00:44:13.881Z,29.73
2022-08-24T00:46:46.021Z,29.57
2022-08-24T00:49:20.590Z,30.77
2022-08-24T00:51:56.037Z,36.50
2022-08-24T00:54:28.457Z,32.55
2022-08-24T00:56:59.228Z,31.42
2022-08-24T00:59:29.500Z,35.85
2022-08-24T01:02:09.033Z,35.03
2022-08-24T01:04:49.091Z,39.95
2022-08-24T01:07:17.703Z,38.80
2022-08-24T01:09:47.884Z,33.15
2022-08-24T01:12:16.841Z,37.78
2022-08-24T01:14:45.298Z,33.80
2022-08-24T01:17:34.037Z,45.60
2022-08-24T01:20:08.275Z,40.05
2022-08-24T01:22:46.582Z,36.20
2022-08-24T01:25:16.458Z,34.60
2022-08-24T01:27:45.076Z,42.38
2022-08-24T01:30:17.381Z,43.77
2022-08-24T01:32:54.946Z,43.60
2022-08-24T01:35:23.563Z,35.35
2022-08-24T01:37:52.545Z,45.58
2022-08-24T01:40:23.003Z,46.35
2022-08-24T01:42:52.892Z,42.27
2022-08-24T01:45:21.879Z,49.10
2022-08-24T01:47:50.023Z,39.40
2022-08-24T01:50:18.126Z,42.97
2022-08-24T01:53:04.454Z,40.80
2022-08-24T01:55:35.761Z,43.65
2022-08-24T01:58:05.371Z,43.37
2022-08-24T02:00:34.703Z,42.97
2022-08-24T02:03:03.990Z,39.13
2022-08-24T02:05:32.580Z,38.50
2022-08-24T02:08:00.876Z,44.50
2022-08-24T02:10:29.356Z,43.45
2022-08-24T02:12:59.792Z,34.85
2022-08-24T02:15:29.680Z,37.53
2022-08-24T02:17:58.720Z,40.38
2022-08-24T02:20:27.543Z,35.33
2022-08-24T02:22:56.147Z,40.00
2022-08-24T02:25:25.289Z,37.35
2022-08-24T02:27:53.818Z,42.15
2022-08-24T02:30:23.617Z,38.72
2022-08-24T02:32:51.713Z,38.78
2022-08-24T02:35:20.136Z,38.42
2022-08-24T02:37:48.453Z,35.80
2022-08-24T02:40:16.834Z,37.10
2022-08-24T02:42:45.574Z,36.28
2022-08-24T02:45:13.901Z,34.70
2022-08-24T02:47:44.024Z,36.92
2022-08-24T02:50:15.529Z,37.40
2022-08-24T02:52:44.069Z,28.83
2022-08-24T02:55:14.710Z,30.33
2022-08-24T02:57:43.138Z,29.65
2022-08-24T03:00:14.932Z,27.25
2022-08-24T03:02:45.759Z,25.35
2022-08-24T03:05:14.493Z,28.45
2022-08-24T03:07:43.091Z,27.00
2022-08-24T03:10:11.803Z,38.55
2022-08-24T03:12:40.483Z,41.50
2022-08-24T03:15:11.523Z,36.13
2022-08-24T03:17:41.089Z,33.17
2022-08-24T03:25:12.382Z,35.03
2022-08-24T03:27:40.931Z,34.28
2022-08-24T03:30:12.970Z,34.05
2022-08-24T03:32:41.278Z,30.67
2022-08-24T03:35:10.656Z,27.75
2022-08-24T03:37:40.453Z,33.13
2022-08-24T03:40:22.489Z,35.85
2022-08-24T03:42:53.622Z,33.58
2022-08-24T03:45:23.013Z,27.77
2022-08-24T03:47:51.191Z,33.22
2022-08-24T03:50:20.473Z,28.38
2022-08-24T03:52:50.324Z,29.33
2022-08-24T03:55:19.191Z,33.28
2022-08-24T03:57:47.483Z,28.95
2022-08-24T04:00:16.160Z,25.60
2022-08-24T04:02:45.214Z,27.50
2022-08-24T04:05:14.465Z,28.83
2022-08-24T04:07:42.860Z,31.95
2022-08-24T04:10:14.626Z,34.40
2022-08-24T04:12:43.100Z,27.25
2022-08-24T04:15:12.480Z,33.35
2022-08-24T04:17:40.602Z,26.30
2022-08-24T04:20:10.000Z,28.00
2022-08-24T04:22:38.218Z,29.13
2022-08-24T04:25:09.274Z,33.00
2022-08-24T04:27:41.563Z,23.83
2022-08-24T04:30:14.151Z,29.10
2022-08-24T04:32:43.219Z,31.20
2022-08-24T04:35:12.045Z,32.95
2022-08-24T04:37:40.242Z,29.13
2022-08-24T04:40:09.902Z,23.17
2022-08-24T04:42:40.066Z,28.90
2022-08-24T04:45:10.628Z,29.58
2022-08-24T04:47:38.831Z,28.38
2022-08-24T04:50:08.312Z,32.08
2022-08-24T04:52:37.117Z,40.25
2022-08-24T04:55:07.616Z,27.30
2022-08-24T04:57:36.214Z,31.33
2022-08-24T05:00:09.440Z,35.10
2022-08-24T05:02:44.766Z,37.95
2022-08-24T05:05:13.550Z,26.98
2022-08-24T05:07:41.978Z,28.17
2022-08-24T05:10:11.678Z,32.42
2022-08-24T05:12:40.289Z,34.20
2022-08-24T05:15:10.964Z,30.67
2022-08-24T05:17:41.129Z,25.15
2022-08-24T05:20:12.047Z,25.80
2022-08-24T05:22:40.435Z,28.65
2022-08-24T05:25:09.448Z,27.65
2022-08-24T05:27:38.030Z,25.15
2022-08-24T05:30:07.568Z,28.85
2022-08-24T05:32:37.440Z,24.15
2022-08-24T05:35:09.511Z,23.40
2022-08-24T05:37:38.595Z,28.17
2022-08-24T05:40:10.347Z,22.75
2022-08-24T05:42:39.104Z,28.20
2022-08-24T05:45:08.860Z,27.88
2022-08-24T05:47:38.615Z,23.38
2022-08-24T05:50:08.243Z,21.95
2022-08-24T05:52:36.730Z,24.35
2022-08-24T05:55:05.815Z,24.83
2022-08-24T05:57:36.011Z,19.90
2022-08-24T06:00:06.690Z,22.30
2022-08-24T06:02:35.248Z,21.00
2022-08-24T06:05:05.164Z,24.35
2022-08-24T06:07:34.446Z,23.48
2022-08-24T06:10:20.196Z,20.63
2022-08-24T06:12:51.060Z,22.02
2022-08-24T06:15:19.200Z,22.90
2022-08-24T06:17:47.383Z,22.50
2022-08-24T06:20:17.468Z,19.60
2022-08-24T06:22:45.503Z,22.08
2022-08-24T06:25:31.442Z,20.77
2022-08-24T06:28:00.631Z,18.27
2022-08-24T06:30:30.615Z,21.48
2022-08-24T06:33:00.744Z,18.30
2022-08-24T06:35:30.577Z,16.73
2022-08-24T06:37:59.067Z,16.30
2022-08-24T06:40:28.677Z,18.38
2022-08-24T06:42:57.369Z,15.70
2022-08-24T06:45:25.657Z,18.75
2022-08-24T06:47:53.941Z,20.63
2022-08-24T06:50:24.679Z,22.63
2022-08-24T06:52:54.452Z,20.58
2022-08-24T06:55:22.576Z,20.25
2022-08-24T06:57:52.654Z,16.27
2022-08-24T07:00:21.950Z,16.25
2022-08-24T07:02:50.233Z,19.42
2022-08-24T07:05:18.790Z,18.83
2022-08-24T07:07:47.093Z,18.38
2022-08-24T07:10:16.767Z,19.23
2022-08-24T07:12:50.842Z,18.67
2022-08-24T07:15:19.537Z,15.98
2022-08-24T07:17:47.739Z,19.17
2022-08-24T07:20:17.613Z,17.83
2022-08-24T07:22:46.734Z,22.92
2022-08-24T07:25:16.544Z,19.77
2022-08-24T07:27:44.871Z,16.00
2022-08-24T07:30:28.202Z,13.43
2022-08-24T07:32:57.912Z,20.50
2022-08-24T07:35:26.827Z,20.30
2022-08-24T07:37:55.155Z,20.27
2022-08-24T07:40:25.514Z,24.30
2022-08-24T07:42:55.142Z,17.90
2022-08-24T07:45:24.000Z,21.23
2022-08-24T07:47:55.435Z,20.00
2022-08-24T07:50:24.277Z,20.17
2022-08-24T07:52:52.853Z,19.13
2022-08-24T07:55:21.731Z,22.02
2022-08-24T07:57:51.823Z,19.35
2022-08-24T08:00:21.346Z,19.13
2022-08-24T08:02:50.783Z,17.00
2022-08-24T08:05:24.578Z,20.17
2022-08-24T08:07:53.169Z,18.45
2022-08-24T08:10:23.429Z,17.65
2022-08-24T08:12:53.085Z,20.30
2022-08-24T08:15:21.491Z,15.90
2022-08-24T08:17:55.780Z,19.30
2022-08-24T08:20:24.874Z,17.98
2022-08-24T08:23:10.428Z,18.70
2022-08-24T08:25:38.931Z,18.95
2022-08-24T08:28:25.199Z,18.65
2022-08-24T08:30:54.605Z,14.35
2022-08-24T08:33:23.158Z,14.43
2022-08-24T08:35:52.499Z,13.75
2022-08-24T08:38:21.445Z,17.20
2022-08-24T08:40:59.637Z,14.68
2022-08-24T08:43:42.051Z,14.38
2022-08-24T08:46:23.374Z,14.50
2022-08-24T08:49:25.196Z,20.85
2022-08-24T08:52:08.752Z,20.05
2022-08-24T08:54:46.067Z,21.70
2022-08-24T08:57:27.370Z,18.90
2022-08-24T09:00:10.648Z,15.40
2022-08-24T09:03:18.646Z,20.90
2022-08-24T09:05:57.617Z,18.45
2022-08-24T09:08:37.013Z,19.85
2022-08-24T09:11:09.536Z,20.33
2022-08-24T09:13:56.220Z,16.80
2022-08-24T09:16:33.336Z,24.98
2022-08-24T09:19:16.313Z,17.27
2022-08-24T09:21:54.473Z,14.80
2022-08-24T09:24:36.679Z,15.60
2022-08-24T09:27:14.397Z,13.60
2022-08-24T09:29:51.715Z,14.05
2022-08-24T09:32:55.987Z,17.45
2022-08-24T09:35:34.012Z,10.40
2022-08-24T09:38:09.368Z,13.80
2022-08-24T09:40:42.829Z,14.43
2022-08-24T09:43:35.156Z,11.70
2022-08-24T09:46:22.351Z,12.07
2022-08-24T09:49:20.711Z,13.05
2022-08-24T09:52:03.014Z,13.35
2022-08-24T09:55:15.100Z,12.02
2022-08-24T09:58:00.603Z,22.33
2022-08-24T10:00:34.536Z,14.50
2022-08-24T10:03:15.608Z,12.10
2022-08-24T10:06:08.960Z,17.55
2022-08-24T10:08:54.713Z,13.40
2022-08-24T10:11:27.290Z,13.85
2022-08-24T10:14:03.846Z,15.57
2022-08-24T10:16:41.322Z,14.82
2022-08-24T10:19:20.426Z,17.50
2022-08-24T10:21:57.294Z,15.02
2022-08-24T10:24:51.837Z,16.25
2022-08-24T10:27:28.103Z,12.48
2022-08-24T10:30:25.903Z,16.13
2022-08-24T10:33:10.402Z,16.98
2022-08-24T10:35:46.519Z,15.93
2022-08-24T10:39:02.756Z,12.73
2022-08-24T10:42:10.756Z,15.45
2022-08-24T10:44:51.080Z,18.27
2022-08-24T10:47:27.102Z,18.52
2022-08-24T10:50:22.131Z,20.92
2022-08-24T10:53:23.035Z,18.75
2022-08-24T10:56:01.742Z,16.15
2022-08-24T10:58:43.869Z,23.98
2022-08-24T11:01:19.097Z,24.58
2022-08-24T11:03:53.632Z,15.52
2022-08-24T11:06:24.446Z,13.38
2022-08-24T11:08:55.252Z,16.73
2022-08-24T11:11:28.959Z,12.45
2022-08-24T11:14:00.390Z,16.35
2022-08-24T11:16:32.587Z,21.45
2022-08-24T11:19:02.467Z,12.88
2022-08-24T11:21:40.959Z,18.50
2022-08-24T11:24:13.167Z,16.40
2022-08-24T11:26:55.835Z,19.20
2022-08-24T11:29:24.576Z,13.75
2022-08-24T11:31:53.936Z,20.58
2022-08-24T11:34:33.307Z,17.98
2022-08-24T11:37:02.390Z,13.45
2022-08-24T11:39:34.688Z,15.25
2022-08-24T11:42:14.885Z,23.73
2022-08-24T11:44:49.976Z,14.32
2022-08-24T11:47:46.097Z,16.80
2022-08-24T11:50:26.093Z,16.45
2022-08-24T11:53:12.512Z,14.80
2022-08-24T11:55:51.957Z,20.77
2022-08-24T11:58:37.305Z,19.20
2022-08-24T12:01:10.101Z,14.10
2022-08-24T12:03:48.331Z,12.80
2022-08-24T12:06:32.449Z,15.25
2022-08-24T12:09:06.029Z,22.50
2022-08-24T12:11:40.952Z,28.45
2022-08-24T12:14:17.337Z,26.00
2022-08-24T12:16:51.339Z,21.17
2022-08-24T12:19:23.670Z,16.17
2022-08-24T12:21:58.063Z,17.13
2022-08-24T12:24:31.841Z,13.15
2022-08-24T12:27:04.125Z,19.45
2022-08-24T12:29:38.694Z,21.50
2022-08-24T12:32:12.005Z,16.00
2022-08-24T12:34:49.981Z,19.10
2022-08-24T12:37:23.389Z,30.08
2022-08-24T12:39:57.155Z,30.90
2022-08-24T12:42:34.682Z,23.95
2022-08-24T12:45:08.371Z,18.77
2022-08-24T12:47:40.901Z,26.85
2022-08-24T12:50:12.989Z,27.25
2022-08-24T12:53:24.079Z,24.92
2022-08-24T12:56:18.318Z,22.70
2022-08-24T12:59:09.156Z,19.48
2022-08-24T13:01:43.512Z,17.45
2022-08-24T13:04:19.811Z,21.25
2022-08-24T13:06:56.343Z,20.52
2022-08-24T13:09:33.235Z,19.98
2022-08-24T13:12:41.874Z,23.75
2022-08-24T13:15:43.605Z,18.05
2022-08-24T13:18:51.838Z,15.57
2022-08-24T13:21:48.927Z,23.88
2022-08-24T13:24:44.671Z,31.27
2022-08-24T13:27:49.042Z,21.40
2022-08-24T13:30:25.295Z,30.67
2022-08-24T13:33:01.145Z,20.60
2022-08-24T13:35:53.929Z,17.73
2022-08-24T13:39:04.031Z,14.40
2022-08-24T13:41:55.233Z,19.83
2022-08-24T13:47:07.840Z,19.45
2022-08-24T13:49:47.233Z,27.70
2022-08-24T13:52:23.065Z,25.98
2022-08-24T13:55:07.079Z,22.83
2022-08-24T13:57:42.947Z,21.02
2022-08-24T14:00:30.402Z,22.70
2022-08-24T14:03:06.869Z,20.80
2022-08-24T14:05:37.165Z,23.10
2022-08-24T14:08:13.403Z,21.23
2022-08-24T14:10:53.753Z,17.58
2022-08-24T14:16:15.185Z,20.63
2022-08-24T14:18:57.512Z,20.70
2022-08-24T14:21:37.280Z,24.13
2022-08-24T14:24:10.088Z,25.15
2022-08-24T14:27:08.326Z,14.50
2022-08-24T14:29:43.338Z,18.80
2022-08-24T14:32:29.590Z,18.50
2022-08-24T14:35:21.031Z,17.95
2022-08-24T14:38:05.784Z,21.67
2022-08-24T14:43:30.629Z,20.23
2022-08-24T14:46:08.936Z,15.55
2022-08-24T14:48:43.711Z,20.90
2022-08-24T14:51:17.559Z,21.75
2022-08-24T14:53:52.950Z,17.90
2022-08-24T14:56:29.964Z,19.88
2022-08-24T14:59:05.116Z,25.02
2022-08-24T15:01:42.071Z,24.50
2022-08-24T15:04:30.707Z,20.92
2022-08-24T15:07:28.474Z,26.35
2022-08-24T15:09:58.614Z,21.77
2022-08-24T15:12:39.601Z,19.15
2022-08-24T15:15:12.796Z,21.13
2022-08-24T15:17:53.194Z,17.98
2022-08-24T15:20:23.057Z,18.63
2022-08-24T15:22:56.454Z,16.33
2022-08-24T15:25:34.089Z,16.27
2022-08-24T15:28:11.398Z,16.05
2022-08-24T15:30:41.960Z,25.17
2022-08-24T15:35:48.944Z,16.02
2022-08-24T15:38:19.693Z,19.27
2022-08-24T15:40:53.601Z,22.67
2022-08-24T15:43:22.656Z,32.00
2022-08-24T15:45:52.393Z,26.30
2022-08-24T15:48:25.976Z,19.88
2022-08-24T15:50:55.951Z,20.33
2022-08-24T15:53:32.922Z,15.43
2022-08-24T15:56:01.932Z,20.15
2022-08-24T15:58:35.251Z,17.55
2022-08-24T16:01:40.938Z,30.00
2022-08-24T16:04:12.788Z,24.60
2022-08-24T16:06:45.220Z,18.13
2022-08-24T16:09:33.891Z,22.42
2022-08-24T16:12:04.837Z,30.83
2022-08-24T16:14:35.771Z,21.45
2022-08-24T16:17:21.764Z,17.40
2022-08-24T16:19:53.743Z,21.48
2022-08-24T16:22:34.498Z,21.50
2022-08-24T16:25:14.963Z,24.52
2022-08-24T16:28:07.855Z,17.70
2022-08-24T16:30:45.430Z,21.58
2022-08-24T16:33:43.298Z,18.92
2022-08-24T16:36:16.691Z,25.25
2022-08-24T16:38:49.013Z,23.13
2022-08-24T16:41:19.069Z,21.55
2022-08-24T16:43:47.566Z,25.05
2022-08-24T16:46:21.218Z,19.98
2022-08-24T16:48:49.861Z,17.17
2022-08-24T16:51:19.750Z,22.65
2022-08-24T16:53:48.066Z,20.80
2022-08-24T16:56:17.031Z,22.23
2022-08-24T16:58:47.562Z,17.95
2022-08-24T17:01:16.271Z,16.55
2022-08-24T17:03:44.647Z,26.30
2022-08-24T17:06:13.422Z,24.98
2022-08-24T17:08:42.990Z,15.90
2022-08-24T17:11:11.579Z,19.52
2022-08-24T17:13:49.280Z,18.63
2022-08-24T17:16:19.328Z,22.42
2022-08-24T17:18:47.514Z,23.25
2022-08-24T17:21:16.103Z,21.63
2022-08-24T17:23:46.095Z,21.45
2022-08-24T17:26:20.553Z,21.80
2022-08-24T17:28:52.694Z,21.08
2022-08-24T17:31:21.120Z,27.90
2022-08-24T17:33:49.308Z,24.52
2022-08-24T17:36:20.157Z,21.50
2022-08-24T17:38:56.385Z,23.38
2022-08-24T17:41:25.992Z,19.60
2022-08-24T17:43:54.726Z,19.35
2022-08-24T17:46:24.234Z,17.10
2022-08-24T17:48:52.865Z,29.50
2022-08-24T17:51:21.330Z,33.15
2022-08-24T17:53:49.891Z,22.20
2022-08-24T17:56:20.663Z,20.58
2022-08-24T17:59:06.804Z,17.42
2022-08-24T18:01:35.249Z,10.90
2022-08-24T18:04:04.005Z,16.08
2022-08-24T18:06:32.795Z,9.07
2022-08-24T18:09:02.878Z,9.02
2022-08-24T18:11:32.453Z,6.78
2022-08-24T18:14:01.692Z,10.32
2022-08-24T18:16:30.428Z,10.75
2022-08-24T18:18:58.754Z,7.88
2022-08-24T18:21:27.081Z,7.78
2022-08-24T18:23:56.129Z,9.90
2022-08-24T18:26:28.481Z,11.23
2022-08-24T18:29:02.527Z,14.75
2022-08-24T18:31:31.945Z,10.73
2022-08-24T18:34:00.322Z,8.20
2022-08-24T18:36:29.012Z,14.82
2022-08-24T18:38:57.391Z,11.50
2022-08-24T18:41:27.606Z,13.27
2022-08-24T18:43:55.879Z,17.92
2022-08-24T18:46:26.152Z,13.40
2022-08-24T18:48:54.534Z,11.87
2022-08-24T18:51:24.183Z,12.20
2022-08-24T18:54:01.207Z,9.82
2022-08-24T18:56:29.428Z,11.38
2022-08-24T18:58:58.323Z,9.98
2022-08-24T19:01:28.880Z,9.93
2022-08-24T19:03:57.639Z,7.00
2022-08-24T19:06:26.248Z,10.82
2022-08-24T19:08:54.467Z,8.45
2022-08-24T19:11:24.940Z,9.80
2022-08-24T19:13:53.389Z,10.52
2022-08-24T19:16:21.471Z,8.85
2022-08-24T19:18:52.291Z,9.93
2022-08-24T19:21:20.732Z,12.32
2022-08-24T19:23:49.220Z,10.68
2022-08-24T19:26:18.608Z,8.27
2022-08-24T19:28:46.899Z,9.18
2022-08-24T19:31:23.563Z,10.02
2022-08-24T19:33:53.978Z,12.07
2022-08-24T19:36:22.507Z,7.90
2022-08-24T19:38:50.844Z,6.45
2022-08-24T19:41:21.445Z,7.38
2022-08-24T19:44:10.543Z,9.98
2022-08-24T19:46:43.148Z,8.10
2022-08-24T19:49:13.014Z,12.07
2022-08-24T19:51:41.136Z,7.07
2022-08-24T19:54:09.619Z,8.45
2022-08-24T19:56:37.826Z,7.15
2022-08-24T19:59:09.193Z,7.90
2022-08-24T20:01:38.181Z,7.03
2022-08-24T20:04:07.676Z,7.10
2022-08-24T20:06:39.169Z,12.70
2022-08-24T20:09:08.509Z,5.97
2022-08-24T20:11:39.062Z,6.78
2022-08-24T20:14:07.299Z,6.80
2022-08-24T20:16:38.351Z,10.23
2022-08-24T20:19:07.277Z,9.93
2022-08-24T20:21:35.912Z,9.48
2022-08-24T20:24:06.488Z,10.43
2022-08-24T20:26:39.326Z,14.83
2022-08-24T20:29:07.856Z,15.35
2022-08-24T20:31:36.610Z,12.98
2022-08-24T20:34:04.987Z,12.02
2022-08-24T20:36:36.587Z,11.60
2022-08-24T20:39:08.491Z,8.05
2022-08-24T20:41:37.346Z,9.88
2022-08-24T20:44:06.036Z,4.72
2022-08-24T20:46:34.186Z,4.65
2022-08-24T20:49:03.158Z,9.48
2022-08-24T20:51:31.370Z,5.72
2022-08-24T20:54:02.137Z,6.20
2022-08-24T20:56:33.388Z,7.95
2022-08-24T20:59:02.750Z,15.40
2022-08-24T21:01:31.097Z,13.35
2022-08-24T21:04:04.723Z,12.68
2022-08-24T21:06:33.906Z,33.60
2022-08-24T21:09:02.630Z,21.42
2022-08-24T21:11:33.097Z,19.17
2022-08-24T21:14:01.531Z,33.25
2022-08-24T21:16:30.173Z,23.83
2022-08-24T21:18:58.455Z,25.58
2022-08-24T21:21:28.209Z,21.83
2022-08-24T21:23:56.464Z,21.08
2022-08-24T21:26:26.640Z,18.98
2022-08-24T21:28:58.088Z,10.77
2022-08-24T21:31:26.873Z,9.93
2022-08-24T21:34:13.106Z,12.65
2022-08-24T21:36:41.986Z,24.73
2022-08-24T21:39:11.107Z,31.23
2022-08-24T21:41:39.658Z,24.45
2022-08-24T21:44:09.322Z,13.13
2022-08-24T21:46:39.416Z,14.80
2022-08-24T21:49:11.823Z,15.55
2022-08-24T21:51:41.246Z,17.70
2022-08-24T21:54:09.585Z,18.05
2022-08-24T21:56:37.784Z,13.02
2022-08-24T21:59:06.999Z,20.58
2022-08-24T22:01:38.781Z,23.70
2022-08-24T22:04:08.183Z,13.65
2022-08-24T22:06:36.586Z,16.27
2022-08-24T22:09:05.225Z,13.38
2022-08-24T22:11:33.622Z,7.95
2022-08-24T22:14:02.975Z,13.55
2022-08-24T22:16:31.323Z,17.77
2022-08-24T22:19:04.185Z,16.58
2022-08-24T22:21:36.078Z,17.77
2022-08-24T22:24:05.155Z,11.68
2022-08-24T22:26:33.799Z,10.98
2022-08-24T22:29:02.232Z,19.13
2022-08-24T22:31:33.540Z,14.10
2022-08-24T22:34:05.538Z,13.48
2022-08-24T22:36:34.153Z,11.75
2022-08-24T22:39:02.466Z,9.75
2022-08-24T22:41:32.492Z,16.58
2022-08-24T22:44:18.400Z,14.00
2022-08-24T22:46:47.031Z,11.65
2022-08-24T22:49:17.366Z,16.42
2022-08-24T22:51:46.360Z,10.15
2022-08-24T22:54:14.714Z,13.45
2022-08-24T22:56:45.178Z,14.80
2022-08-24T22:59:16.883Z,10.13
2022-08-24T23:01:46.988Z,13.63
2022-08-24T23:04:18.715Z,9.43
2022-08-24T23:06:47.445Z,10.90
2022-08-24T23:09:15.851Z,8.20
2022-08-24T23:11:45.256Z,25.15
2022-08-24T23:14:14.912Z,13.35
2022-08-24T23:16:47.829Z,18.85
2022-08-24T23:19:36.521Z,18.33
2022-08-24T23:22:05.306Z,18.42
2022-08-24T23:24:34.132Z,13.27
2022-08-24T23:27:03.277Z,15.75
2022-08-24T23:29:31.695Z,13.80
2022-08-24T23:32:00.341Z,14.57
2022-08-24T23:34:30.394Z,10.75
2022-08-24T23:36:58.981Z,9.77
2022-08-24T23:39:27.996Z,8.27
2022-08-24T23:41:56.354Z,9.80
2022-08-24T23:44:27.749Z,6.97
2022-08-24T23:46:56.577Z,11.60
2022-08-24T23:49:26.067Z,13.05
2022-08-24T23:51:56.313Z,12.70
2022-08-24T23:54:25.073Z,16.73
2022-08-24T23:56:54.269Z,14.90
2022-08-24T23:59:25.013Z,12.55
